createdAt,value
2022-11-19T00:01:17.951Z,7.47
2022-11-19T00:03:49.875Z,6.47
2022-11-19T00:06:22.654Z,6.93
2022-11-19T00:08:49.807Z,8.13
2022-11-19T00:11:38.057Z,8.45
2022-11-19T00:14:05.057Z,8.20
2022-11-19T00:16:31.652Z,8.85
2022-11-19T00:18:58.262Z,8.43
2022-11-19T00:21:24.803Z,8.75
2022-11-19T00:23:55.001Z,8.75
2022-11-19T00:26:22.577Z,8.98
2022-11-19T00:28:49.234Z,8.75
2022-11-19T00:31:17.138Z,9.90
2022-11-19T00:33:45.505Z,9.00
2022-11-19T00:36:14.790Z,8.70
2022-11-19T00:38:41.811Z,9.70
2022-11-19T00:41:08.668Z,9.40
2022-11-19T00:43:47.693Z,9.15
2022-11-19T00:46:15.367Z,9.68
2022-11-19T00:48:42.318Z,9.65
2022-11-19T00:51:09.472Z,9.27
2022-11-19T00:53:36.749Z,9.25
2022-11-19T00:56:05.417Z,9.90
2022-11-19T00:58:31.911Z,9.98
2022-11-19T01:00:58.475Z,9.63
2022-11-19T01:03:25.432Z,9.52
2022-11-19T01:05:52.203Z,8.75
2022-11-19T01:08:19.533Z,9.15
2022-11-19T01:10:46.164Z,9.88
2022-11-19T01:13:31.464Z,9.50
2022-11-19T01:15:58.128Z,9.10
2022-11-19T01:18:24.815Z,9.63
2022-11-19T01:20:51.305Z,10.20
2022-11-19T01:23:18.635Z,9.55
2022-11-19T01:25:45.392Z,9.75
2022-11-19T01:28:12.245Z,10.55
2022-11-19T01:30:43.372Z,10.23
2022-11-19T01:33:10.508Z,10.23
2022-11-19T01:35:37.680Z,10.88
2022-11-19T01:38:05.058Z,11.50
2022-11-19T01:40:32.247Z,10.80
2022-11-19T01:42:58.905Z,11.25
2022-11-19T01:45:31.073Z,12.15
2022-11-19T01:48:02.583Z,12.48
2022-11-19T01:50:32.907Z,12.93
2022-11-19T01:53:00.611Z,13.02
2022-11-19T01:55:28.130Z,13.02
2022-11-19T01:57:58.753Z,13.68
2022-11-19T02:02:52.089Z,13.65
2022-11-19T02:05:19.164Z,14.23
2022-11-19T02:07:55.822Z,14.73
2022-11-19T02:10:35.579Z,14.98
2022-11-19T02:13:22.301Z,15.33
2022-11-19T02:16:26.277Z,14.95
2022-11-19T02:19:00.428Z,14.30
2022-11-19T02:21:45.635Z,15.65
2022-11-19T02:24:30.267Z,15.38
2022-11-19T02:27:15.120Z,14.77
2022-11-19T02:30:08.461Z,16.02
2022-11-19T02:32:44.349Z,15.93
2022-11-19T02:35:16.401Z,16.35
2022-11-19T02:38:12.407Z,17.02
2022-11-19T02:40:48.734Z,16.55
2022-11-19T02:43:34.925Z,17.20
2022-11-19T02:46:14.905Z,17.23
2022-11-19T02:48:50.193Z,18.20
2022-11-19T02:51:18.548Z,18.23
2022-11-19T02:53:48.160Z,17.65
2022-11-19T02:56:35.338Z,18.45
2022-11-19T02:59:22.099Z,18.30
2022-11-19T03:02:08.573Z,17.95
2022-11-19T03:04:35.419Z,18.85
2022-11-19T03:07:08.668Z,19.33
2022-11-19T03:09:40.587Z,19.17
2022-11-19T03:12:41.222Z,19.13
2022-11-19T03:15:29.663Z,17.15
2022-11-19T03:18:28.155Z,18.58
2022-11-19T03:21:03.769Z,19.00
2022-11-19T03:24:03.101Z,18.65
2022-11-19T03:26:41.510Z,18.92
2022-11-19T03:29:12.444Z,18.80
2022-11-19T03:31:43.010Z,17.23
2022-11-19T03:34:15.636Z,18.20
2022-11-19T03:36:44.352Z,18.80
2022-11-19T03:39:15.073Z,18.27
2022-11-19T03:44:24.286Z,17.63
2022-11-19T03:46:56.049Z,18.90
2022-11-19T03:49:28.659Z,18.88
2022-11-19T03:52:11.754Z,19.55
2022-11-19T03:54:39.746Z,19.52
2022-11-19T03:57:08.491Z,19.17
2022-11-19T03:59:35.112Z,19.73
2022-11-19T04:02:08.244Z,19.33
2022-11-19T04:04:37.834Z,18.98
2022-11-19T04:07:09.236Z,20.70
2022-11-19T04:09:36.001Z,19.83
2022-11-19T04:12:03.291Z,21.35
2022-11-19T04:14:29.873Z,21.50
2022-11-19T04:16:56.487Z,21.15
2022-11-19T04:19:23.142Z,21.98
2022-11-19T04:21:49.782Z,22.33
2022-11-19T04:24:16.804Z,22.33
2022-11-19T04:26:43.392Z,22.00
2022-11-19T04:29:09.993Z,22.42
2022-11-19T04:31:36.790Z,22.77
2022-11-19T04:34:03.317Z,22.33
2022-11-19T04:36:30.017Z,22.63
2022-11-19T04:38:56.542Z,22.63
2022-11-19T04:41:23.324Z,22.23
2022-11-19T04:43:49.876Z,21.05
2022-11-19T04:46:16.542Z,20.73
2022-11-19T04:48:43.079Z,19.95
2022-11-19T04:51:09.665Z,20.27
2022-11-19T04:53:36.330Z,19.40
2022-11-19T04:56:02.887Z,17.38
2022-11-19T04:58:29.504Z,12.43
2022-11-19T05:00:56.074Z,12.77
2022-11-19T05:03:22.811Z,11.20
2022-11-19T05:05:49.914Z,11.10
2022-11-19T05:08:16.446Z,11.45
2022-11-19T05:10:44.717Z,10.70
2022-11-19T05:13:11.380Z,9.05
2022-11-19T05:15:37.874Z,9.55
2022-11-19T05:18:04.615Z,9.40
2022-11-19T05:20:31.423Z,9.40
2022-11-19T05:22:58.323Z,9.57
2022-11-19T05:25:24.857Z,9.43
2022-11-19T05:27:51.735Z,9.35
2022-11-19T05:30:18.419Z,9.63
2022-11-19T05:32:45.115Z,8.98
2022-11-19T05:35:11.572Z,9.38
2022-11-19T05:37:38.241Z,9.30
2022-11-19T05:40:05.259Z,9.90
2022-11-19T05:42:31.727Z,8.90
2022-11-19T05:44:58.322Z,9.30
2022-11-19T05:47:24.852Z,9.73
2022-11-19T05:49:51.482Z,9.60
2022-11-19T05:52:18.049Z,9.70
2022-11-19T05:54:44.602Z,9.38
2022-11-19T05:57:11.146Z,9.80
2022-11-19T05:59:43.480Z,9.60
2022-11-19T06:02:10.759Z,10.57
2022-11-19T06:04:38.216Z,10.05
2022-11-19T06:07:05.089Z,10.10
2022-11-19T06:09:32.516Z,11.07
2022-11-19T06:11:59.090Z,11.13
2022-11-19T06:14:27.391Z,11.55
2022-11-19T06:16:59.312Z,11.15
2022-11-19T06:19:26.538Z,12.10
2022-11-19T06:21:53.678Z,11.57
2022-11-19T06:24:20.846Z,12.80
2022-11-19T06:26:47.431Z,11.90
2022-11-19T06:29:15.736Z,12.73
2022-11-19T06:31:42.318Z,12.95
2022-11-19T06:34:09.429Z,12.18
2022-11-19T06:36:41.794Z,11.77
2022-11-19T06:39:10.463Z,11.75
2022-11-19T06:41:37.223Z,12.02
2022-11-19T06:44:04.088Z,11.18
2022-11-19T06:46:30.697Z,11.70
2022-11-19T06:48:57.383Z,11.45
2022-11-19T06:51:24.737Z,12.52
2022-11-19T06:53:51.326Z,11.50
2022-11-19T06:56:17.802Z,12.23
2022-11-19T06:58:44.297Z,13.50
2022-11-19T07:01:10.866Z,13.40
2022-11-19T07:03:37.369Z,13.65
2022-11-19T07:06:04.935Z,13.18
2022-11-19T07:08:34.884Z,13.85
2022-11-19T07:11:22.389Z,13.68
2022-11-19T07:13:58.463Z,14.00
2022-11-19T07:16:30.640Z,14.15
2022-11-19T07:18:59.405Z,14.27
2022-11-19T07:21:26.851Z,14.65
2022-11-19T07:23:54.369Z,14.32
2022-11-19T07:26:21.046Z,13.90
2022-11-19T07:28:47.564Z,14.98
2022-11-19T07:31:14.199Z,14.88
2022-11-19T07:33:41.096Z,14.18
2022-11-19T07:36:15.330Z,15.05
2022-11-19T07:38:44.645Z,14.57
2022-11-19T07:41:29.720Z,13.82
2022-11-19T07:43:56.323Z,12.98
2022-11-19T07:46:23.292Z,12.27
2022-11-19T07:48:54.428Z,13.02
2022-11-19T07:51:21.878Z,12.05
2022-11-19T07:53:49.588Z,13.00
2022-11-19T07:56:16.631Z,12.38
2022-11-19T07:58:43.123Z,11.52
2022-11-19T08:01:11.837Z,12.32
2022-11-19T08:03:38.413Z,12.40
2022-11-19T08:06:06.447Z,12.05
2022-11-19T08:08:33.285Z,12.32
2022-11-19T08:11:07.265Z,11.93
2022-11-19T08:13:34.186Z,12.27
2022-11-19T08:16:02.311Z,12.55
2022-11-19T08:18:31.328Z,12.32
2022-11-19T08:21:05.311Z,11.98
2022-11-19T08:23:32.822Z,12.23
2022-11-19T08:26:00.034Z,11.63
2022-11-19T08:28:27.526Z,10.95
2022-11-19T08:30:54.396Z,10.48
2022-11-19T08:33:20.935Z,10.93
2022-11-19T08:35:47.459Z,10.00
2022-11-19T08:38:14.037Z,11.15
2022-11-19T08:40:40.594Z,11.10
2022-11-19T08:43:07.083Z,11.00
2022-11-19T08:45:38.015Z,11.05
2022-11-19T08:48:10.637Z,10.90
2022-11-19T08:50:37.554Z,10.80
2022-11-19T08:53:06.188Z,10.25
2022-11-19T08:55:32.962Z,11.38
2022-11-19T08:58:04.334Z,10.23
2022-11-19T09:00:32.876Z,10.52
2022-11-19T09:02:59.445Z,11.40
2022-11-19T09:05:26.594Z,11.23
2022-11-19T09:07:54.976Z,11.48
2022-11-19T09:10:21.600Z,10.98
2022-11-19T09:12:49.393Z,12.02
2022-11-19T09:15:16.111Z,11.90
2022-11-19T09:17:46.780Z,12.55
2022-11-19T09:20:14.038Z,12.73
2022-11-19T09:22:40.911Z,12.50
2022-11-19T09:25:09.008Z,13.98
2022-11-19T09:27:36.934Z,14.52
2022-11-19T09:30:05.723Z,13.98
2022-11-19T09:32:33.034Z,13.38
2022-11-19T09:34:59.575Z,14.98
2022-11-19T09:37:26.180Z,14.50
2022-11-19T09:39:52.746Z,14.18
2022-11-19T09:42:50.614Z,15.32
2022-11-19T09:46:03.856Z,14.57
2022-11-19T09:48:37.106Z,14.27
2022-11-19T09:51:19.983Z,14.52
2022-11-19T09:53:58.017Z,15.68
2022-11-19T09:56:54.379Z,15.50
2022-11-19T09:59:24.327Z,14.45
2022-11-19T10:01:51.482Z,16.20
2022-11-19T10:04:31.694Z,14.80
2022-11-19T10:07:36.045Z,13.70
2022-11-19T10:10:28.099Z,13.65
2022-11-19T10:13:15.711Z,13.10
2022-11-19T10:15:48.459Z,14.23
2022-11-19T10:18:41.211Z,14.32
2022-11-19T10:21:22.270Z,13.82
2022-11-19T10:24:10.478Z,14.32
2022-11-19T10:26:40.806Z,14.18
2022-11-19T10:29:21.974Z,14.13
2022-11-19T10:31:50.921Z,14.80
2022-11-19T10:34:33.356Z,14.77
2022-11-19T10:37:11.551Z,13.73
2022-11-19T10:39:53.522Z,15.02
2022-11-19T10:42:28.826Z,14.15
2022-11-19T10:45:05.043Z,14.40
2022-11-19T10:47:41.176Z,13.93
2022-11-19T10:50:15.354Z,14.88
2022-11-19T10:52:47.426Z,14.95
2022-11-19T10:55:32.736Z,16.05
2022-11-19T10:58:08.300Z,15.40
2022-11-19T11:00:37.375Z,15.75
2022-11-19T11:03:06.691Z,15.25
2022-11-19T11:05:55.699Z,15.45
2022-11-19T11:08:22.523Z,16.25
2022-11-19T11:10:51.019Z,17.33
2022-11-19T11:13:54.309Z,17.13
2022-11-19T11:16:38.883Z,16.30
2022-11-19T11:19:14.635Z,17.63
2022-11-19T11:21:43.719Z,18.08
2022-11-19T11:24:14.543Z,18.08
2022-11-19T11:26:41.538Z,18.65
2022-11-19T11:29:13.930Z,18.17
2022-11-19T11:31:43.228Z,19.33
2022-11-19T11:34:26.213Z,19.10
2022-11-19T11:36:53.894Z,19.27
2022-11-19T11:39:40.934Z,18.63
2022-11-19T11:42:17.556Z,19.10
2022-11-19T11:44:57.413Z,18.70
2022-11-19T11:47:30.761Z,18.55
2022-11-19T11:50:08.897Z,18.83
2022-11-19T11:52:35.552Z,19.02
2022-11-19T11:55:08.376Z,17.92
2022-11-19T11:57:37.443Z,19.05
2022-11-19T12:00:29.717Z,17.60
2022-11-19T12:03:14.869Z,18.35
2022-11-19T12:06:03.164Z,18.40
2022-11-19T12:08:52.484Z,19.15
2022-11-19T12:11:57.320Z,19.52
2022-11-19T12:14:44.859Z,19.05
2022-11-19T12:17:40.068Z,18.00
2022-11-19T12:20:18.813Z,18.45
2022-11-19T12:23:00.444Z,19.45
2022-11-19T12:25:51.930Z,18.58
2022-11-19T12:28:48.424Z,18.77
2022-11-19T12:31:52.543Z,20.45
2022-11-19T12:34:25.018Z,19.85
2022-11-19T12:37:08.300Z,20.45
2022-11-19T12:39:53.669Z,18.75
2022-11-19T12:42:48.259Z,19.15
2022-11-19T12:45:42.119Z,18.15
2022-11-19T12:48:23.859Z,19.42
2022-11-19T12:50:59.354Z,20.27
2022-11-19T12:53:49.423Z,19.58
2022-11-19T12:56:27.754Z,18.25
2022-11-19T12:58:59.451Z,20.15
2022-11-19T13:01:30.906Z,19.50
2022-11-19T13:04:22.623Z,19.13
2022-11-19T13:06:57.843Z,18.50
2022-11-19T13:10:00.516Z,18.75
2022-11-19T13:12:40.503Z,19.25
2022-11-19T13:15:34.164Z,19.45
2022-11-19T13:18:04.754Z,19.67
2022-11-19T13:20:44.070Z,19.48
2022-11-19T13:23:19.519Z,19.48
2022-11-19T13:26:01.900Z,20.20
2022-11-19T13:28:45.633Z,19.20
2022-11-19T13:31:38.883Z,18.98
2022-11-19T13:34:18.758Z,18.95
2022-11-19T13:36:57.846Z,19.20
2022-11-19T13:39:35.804Z,19.70
2022-11-19T13:42:24.822Z,19.90
2022-11-19T13:44:52.061Z,19.67
2022-11-19T13:47:28.945Z,20.25
2022-11-19T13:50:03.602Z,20.08
2022-11-19T13:52:32.203Z,20.20
2022-11-19T13:55:00.180Z,19.40
2022-11-19T13:57:37.205Z,21.13
2022-11-19T14:00:29.308Z,19.92
2022-11-19T14:03:20.546Z,19.23
2022-11-19T14:06:04.972Z,19.25
2022-11-19T14:08:52.867Z,18.45
2022-11-19T14:11:28.445Z,18.33
2022-11-19T14:14:32.409Z,19.35
2022-11-19T14:17:48.939Z,19.25
2022-11-19T14:20:53.896Z,17.55
2022-11-19T14:24:08.413Z,19.17
2022-11-19T14:26:40.800Z,18.85
2022-11-19T14:29:25.804Z,18.95
2022-11-19T14:32:02.699Z,19.88
2022-11-19T14:34:31.969Z,19.65
2022-11-19T14:37:03.398Z,19.85
2022-11-19T14:39:41.337Z,19.52
2022-11-19T14:42:20.163Z,19.17
2022-11-19T14:45:06.526Z,19.50
2022-11-19T14:47:39.405Z,20.00
2022-11-19T14:50:21.208Z,18.00
2022-11-19T14:52:57.544Z,18.95
2022-11-19T14:55:26.857Z,19.40
2022-11-19T14:58:19.560Z,18.30
2022-11-19T15:00:46.416Z,18.23
2022-11-19T15:03:21.325Z,18.77
2022-11-19T15:05:48.360Z,18.05
2022-11-19T15:08:17.991Z,16.70
2022-11-19T15:10:49.132Z,15.80
2022-11-19T15:13:40.215Z,15.98
2022-11-19T15:16:10.176Z,16.20
2022-11-19T15:18:39.865Z,18.08
2022-11-19T15:21:06.351Z,18.33
2022-11-19T15:23:59.321Z,17.95
2022-11-19T15:26:50.461Z,17.58
2022-11-19T15:29:36.066Z,17.20
2022-11-19T15:32:41.001Z,17.70
2022-11-19T15:35:32.039Z,16.02
2022-11-19T15:38:25.018Z,17.35
2022-11-19T15:40:54.892Z,17.02
2022-11-19T15:43:45.613Z,18.13
2022-11-19T15:46:18.565Z,15.95
2022-11-19T15:49:00.188Z,17.10
2022-11-19T15:51:26.812Z,17.17
2022-11-19T15:54:01.694Z,16.83
2022-11-19T15:56:32.700Z,16.98
2022-11-19T15:59:01.425Z,17.05
2022-11-19T16:01:29.338Z,17.83
2022-11-19T16:04:11.092Z,17.02
2022-11-19T16:06:44.995Z,16.95
2022-11-19T16:09:26.057Z,16.67
2022-11-19T16:12:16.870Z,17.02
2022-11-19T16:17:49.912Z,16.70
2022-11-19T16:20:20.602Z,17.27
2022-11-19T16:25:44.199Z,17.38
2022-11-19T16:28:14.150Z,17.55
2022-11-19T16:30:46.591Z,17.60
2022-11-19T16:33:17.107Z,17.58
2022-11-19T16:35:48.329Z,17.05
2022-11-19T16:38:25.740Z,16.42
2022-11-19T16:41:23.007Z,16.20
2022-11-19T16:43:50.230Z,14.70
2022-11-19T16:46:21.684Z,15.55
2022-11-19T16:48:48.235Z,17.08
2022-11-19T16:51:26.764Z,15.93
2022-11-19T16:53:53.477Z,16.38
2022-11-19T16:56:20.056Z,16.27
2022-11-19T16:58:46.991Z,15.55
2022-11-19T17:01:17.933Z,15.85
2022-11-19T17:03:45.233Z,16.52
2022-11-19T17:06:26.295Z,16.27
2022-11-19T17:08:58.416Z,15.10
2022-11-19T17:12:06.774Z,16.33
2022-11-19T17:14:36.129Z,15.73
2022-11-19T17:17:03.711Z,16.85
2022-11-19T17:19:35.486Z,15.85
2022-11-19T17:22:14.271Z,15.85
2022-11-19T17:24:43.349Z,15.82
2022-11-19T17:27:21.846Z,16.33
2022-11-19T17:29:48.682Z,15.60
2022-11-19T17:32:15.426Z,15.52
2022-11-19T17:34:49.237Z,16.52
2022-11-19T17:37:15.788Z,16.73
2022-11-19T17:39:42.379Z,16.25
2022-11-19T17:42:28.098Z,17.45
2022-11-19T17:44:54.716Z,16.55
2022-11-19T17:47:23.756Z,16.10
2022-11-19T17:49:51.863Z,16.88
2022-11-19T17:52:31.528Z,16.20
2022-11-19T17:55:11.144Z,17.15
2022-11-19T17:57:42.372Z,15.55
2022-11-19T18:00:11.629Z,16.60
2022-11-19T18:02:39.212Z,17.02
2022-11-19T18:05:15.729Z,16.92
2022-11-19T18:07:42.328Z,16.63
2022-11-19T18:10:09.460Z,17.27
2022-11-19T18:12:36.028Z,17.02
2022-11-19T18:15:02.641Z,16.55
2022-11-19T18:17:29.214Z,16.55
2022-11-19T18:19:55.824Z,16.95
2022-11-19T18:22:22.504Z,17.02
2022-11-19T18:24:50.477Z,17.13
2022-11-19T18:27:17.711Z,17.23
2022-11-19T18:29:44.410Z,17.15
2022-11-19T18:32:12.253Z,17.70
2022-11-19T18:34:38.776Z,16.58
2022-11-19T18:37:05.364Z,16.50
2022-11-19T18:39:31.874Z,17.30
2022-11-19T18:41:58.407Z,16.23
2022-11-19T18:44:34.150Z,16.77
2022-11-19T18:47:01.492Z,17.70
2022-11-19T18:49:28.247Z,16.50
2022-11-19T18:51:55.405Z,16.80
2022-11-19T18:54:22.343Z,16.77
2022-11-19T18:56:48.887Z,15.70
2022-11-19T18:59:15.528Z,16.73
2022-11-19T19:01:42.213Z,16.67
2022-11-19T19:04:13.942Z,17.05
2022-11-19T19:06:41.649Z,16.58
2022-11-19T19:09:08.245Z,16.90
2022-11-19T19:11:52.976Z,16.92
2022-11-19T19:14:19.810Z,16.75
2022-11-19T19:16:46.652Z,16.65
2022-11-19T19:19:17.343Z,15.75
2022-11-19T19:24:10.382Z,15.85
2022-11-19T19:26:38.164Z,16.17
2022-11-19T19:29:06.002Z,16.83
2022-11-19T19:31:33.026Z,16.38
2022-11-19T19:34:01.121Z,16.42
2022-11-19T19:36:28.038Z,16.38
2022-11-19T19:38:54.865Z,16.58
2022-11-19T19:41:23.554Z,17.65
2022-11-19T19:43:50.510Z,17.17
2022-11-19T19:46:20.105Z,17.17
2022-11-19T19:48:48.970Z,17.20
2022-11-19T19:51:16.711Z,17.30
2022-11-19T19:53:43.859Z,17.45
2022-11-19T19:56:13.661Z,15.80
2022-11-19T19:58:43.721Z,15.98
2022-11-19T20:01:31.494Z,16.75
2022-11-19T20:04:09.157Z,16.67
2022-11-19T20:06:37.856Z,16.70
2022-11-19T20:09:08.802Z,17.50
2022-11-19T20:11:48.535Z,16.58
2022-11-19T20:14:15.451Z,16.17
2022-11-19T20:16:42.153Z,16.15
2022-11-19T20:19:13.459Z,17.73
2022-11-19T20:21:40.401Z,18.92
2022-11-19T20:24:12.145Z,17.80
2022-11-19T20:26:40.964Z,16.67
2022-11-19T20:29:09.215Z,17.65
2022-11-19T20:31:35.922Z,17.33
2022-11-19T20:34:05.158Z,18.17
2022-11-19T20:36:34.394Z,18.05
2022-11-19T20:39:01.589Z,17.17
2022-11-19T20:41:47.585Z,17.95
2022-11-19T20:44:22.324Z,17.98
2022-11-19T20:47:00.628Z,17.80
2022-11-19T20:49:29.406Z,17.80
2022-11-19T20:51:56.862Z,17.45
2022-11-19T20:54:24.680Z,18.98
2022-11-19T20:56:53.063Z,17.25
2022-11-19T20:59:20.639Z,18.25
2022-11-19T21:01:51.569Z,18.05
2022-11-19T21:06:45.552Z,17.45
2022-11-19T21:09:12.565Z,17.33
2022-11-19T21:11:39.174Z,17.88
2022-11-19T21:14:07.431Z,18.13
2022-11-19T21:16:34.008Z,17.88
2022-11-19T21:19:00.747Z,17.65
2022-11-19T21:21:27.665Z,18.08
2022-11-19T21:23:54.553Z,18.45
2022-11-19T21:26:23.353Z,17.67
2022-11-19T21:28:53.222Z,17.13
2022-11-19T21:31:23.393Z,17.42
2022-11-19T21:33:49.921Z,17.20
2022-11-19T21:36:16.575Z,17.38
2022-11-19T21:38:43.255Z,16.63
2022-11-19T21:41:09.880Z,18.10
2022-11-19T21:43:37.132Z,17.25
2022-11-19T21:46:07.317Z,18.10
2022-11-19T21:48:33.961Z,17.60
2022-11-19T21:51:05.944Z,17.65
2022-11-19T21:53:32.505Z,17.77
2022-11-19T21:55:59.091Z,17.05
2022-11-19T21:58:25.627Z,17.02
2022-11-19T22:00:57.605Z,17.73
2022-11-19T22:03:24.155Z,16.73
2022-11-19T22:06:11.293Z,18.00
2022-11-19T22:08:39.893Z,17.10
2022-11-19T22:11:26.616Z,18.00
2022-11-19T22:13:55.463Z,16.67
2022-11-19T22:16:22.638Z,18.15
2022-11-19T22:18:49.243Z,17.60
2022-11-19T22:21:16.156Z,18.88
2022-11-19T22:23:42.740Z,17.77
2022-11-19T22:26:11.803Z,17.73
2022-11-19T22:28:38.378Z,17.27
2022-11-19T22:31:05.807Z,20.38
2022-11-19T22:33:35.153Z,18.77
2022-11-19T22:36:09.238Z,18.20
2022-11-19T22:38:36.385Z,18.02
2022-11-19T22:41:08.772Z,18.25
2022-11-19T22:43:36.502Z,16.98
2022-11-19T22:46:03.842Z,18.90
2022-11-19T22:48:32.150Z,17.13
2022-11-19T22:50:59.172Z,17.63
2022-11-19T22:53:25.840Z,18.15
2022-11-19T22:55:52.578Z,17.17
2022-11-19T22:58:19.112Z,17.75
2022-11-19T23:00:48.582Z,17.92
2022-11-19T23:03:15.538Z,17.02
2022-11-19T23:05:46.700Z,17.13
2022-11-19T23:08:13.316Z,17.52
2022-11-19T23:10:39.901Z,17.27
2022-11-19T23:13:24.966Z,18.75
2022-11-19T23:16:12.167Z,17.60
2022-11-19T23:18:41.895Z,17.75
2022-11-19T23:21:13.802Z,17.73
2022-11-19T23:23:40.885Z,17.45
2022-11-19T23:26:09.350Z,17.48
2022-11-19T23:28:37.341Z,18.80
2022-11-19T23:31:15.765Z,17.42
2022-11-19T23:33:42.866Z,17.30
2022-11-19T23:36:15.458Z,16.77
2022-11-19T23:38:42.520Z,17.52
2022-11-19T23:41:11.408Z,17.58
2022-11-19T23:43:41.839Z,18.52
2022-11-19T23:46:21.721Z,16.73
2022-11-19T23:48:49.437Z,16.90
2022-11-19T23:51:20.133Z,18.38
2022-11-19T23:56:15.442Z,17.67
2022-11-19T23:58:42.753Z,18.45
